CDT,Max TemperatureF,Mean TemperatureF,Min TemperatureF,Max Dew PointF,MeanDew PointF,Min DewpointF,Max Humidity, Mean Humidity, Min Humidity, Max Sea Level PressureIn, Mean Sea Level PressureIn, Min Sea Level PressureIn, Max VisibilityMiles, Mean VisibilityMiles, Min VisibilityMiles, Max Wind SpeedMPH, Mean Wind SpeedMPH, Max Gust SpeedMPH,PrecipitationIn, CloudCover, Events, WindDirDegrees
2013-10-1,93,83,73,75,72,65,94,67,39,29.93,29.85,29.78,10,8,0,17,8,23,T,6,Fog-Rain,139
2013-10-2,93,85,77,75,72,67,91,68,44,29.97,29.87,29.81,10,10,7,18,10,23,0.05,5,Rain,153
2013-10-3,92,84,76,74,71,67,87,67,47,29.93,29.86,29.79,10,10,10,18,11,24,0.00,3,,170
2013-10-4,93,84,75,72,71,67,87,66,44,29.94,29.86,29.78,10,10,10,20,11,24,0.00,4,,163
2013-10-5,91,78,65,73,66,44,87,66,44,29.99,29.90,29.84,10,10,10,24,9,31,0.00,6,,165
2013-10-6,83,70,56,54,46,34,86,52,18,30.12,30.07,29.99,10,10,3,21,8,30,0.17,4,Rain-Thunderstorm,14
2013-10-7,87,69,51,52,45,39,77,48,19,30.14,30.08,30.01,10,10,10,12,4,15,0.00,0,,339
2013-10-8,85,70,54,51,48,44,77,51,25,30.06,30.01,29.95,10,10,9,12,5,17,0.00,1,,243
2013-10-9,86,72,57,63,58,53,86,63,40,30.07,29.97,29.91,10,10,10,16,7,22,0.00,1,,142
2013-10-10,87,77,66,68,64,62,87,65,43,30.03,29.94,29.83,10,10,10,21,8,28,0.00,4,,142
2013-10-11,90,83,75,75,72,69,87,70,52,29.95,29.86,29.78,10,10,10,18,10,25,0.00,7,,154
2013-10-12,92,85,78,76,73,69,85,67,49,30.01,29.92,29.86,10,10,7,17,9,20,0.12,7,Rain-Thunderstorm,150
2013-10-13,79,74,68,75,71,64,93,89,85,30.17,30.06,29.97,10,9,2,22,8,30,0.78,8,Rain-Thunderstorm,92
2013-10-14,87,80,73,74,72,69,93,74,55,30.07,30.00,29.87,10,9,4,20,9,22,0.06,7,Rain,140
2013-10-15,86,75,63,72,69,60,87,71,55,30.00,29.91,29.83,10,10,7,16,8,21,T,7,Rain,155
2013-10-16,64,61,57,59,57,55,93,86,78,30.07,30.00,29.90,10,7,2,20,9,25,0.79,8,Rain,5
2013-10-17,76,66,55,57,51,47,90,64,38,30.10,30.02,29.96,10,10,10,12,4,17,0.00,4,,45
2013-10-18,75,68,61,66,61,53,90,79,68,30.00,29.92,29.85,10,9,4,10,4,13,T,8,Rain,69
2013-10-19,72,62,51,65,47,38,87,59,31,30.16,30.08,29.96,10,10,7,24,9,32,T,4,Rain,7
2013-10-20,75,61,46,53,46,42,86,61,35,30.06,29.99,29.90,10,10,10,14,4,17,0.00,1,,193
2013-10-21,82,73,63,66,62,55,93,75,57,30.02,29.92,29.86,10,10,10,18,4,24,0.00,6,,105
2013-10-22,78,66,54,54,45,33,78,49,19,30.14,30.08,30.03,10,10,10,17,8,24,0.00,2,,358
2013-10-23,82,66,49,49,43,39,74,49,23,30.17,30.11,30.07,10,10,10,13,5,16,0.00,0,,261
2013-10-24,82,66,50,53,49,44,83,58,32,30.20,30.15,30.10,10,10,10,14,4,17,0.00,0,,240
2013-10-25,82,68,54,64,58,51,93,69,45,30.28,30.21,30.16,10,10,10,16,8,23,T,3,,120
2013-10-26,83,75,66,65,64,62,93,72,51,30.23,30.13,30.03,10,9,5,17,9,25,0.00,6,,136
2013-10-27,83,75,66,68,66,64,93,78,62,30.11,30.02,29.95,10,10,8,15,5,20,0.00,7,,95
2013-10-28,86,78,69,70,67,64,97,74,51,30.07,29.99,29.93,10,10,7,23,12,28,T,7,,142
2013-10-29,86,80,73,72,69,66,93,74,55,30.09,30.00,29.91,10,10,7,21,13,26,T,7,Rain,152
2013-10-30,85,81,76,75,73,70,94,80,65,30.03,29.89,29.77,10,9,2,17,10,22,0.72,8,Rain-Thunderstorm,171
2013-10-31,85,71,57,74,62,39,93,58,22,29.86,29.81,29.76,10,9,3,24,8,30,0.12,6,Rain-Thunderstorm,258